sensor_id;sensor_type;location;lat;lon;timestamp;temperature;humidity
26408;DHT22;14583;43.604;1.364;2024-03-08T00:01:06;11.30;99.90
26408;DHT22;14583;43.604;1.364;2024-03-08T00:03:32;11.30;99.90
26408;DHT22;14583;43.604;1.364;2024-03-08T00:05:59;11.30;99.90
26408;DHT22;14583;43.604;1.364;2024-03-08T00:08:24;11.30;99.90
26408;DHT22;14583;43.604;1.364;2024-03-08T00:10:50;11.30;99.90
26408;DHT22;14583;43.604;1.364;2024-03-08T00:13:16;11.30;99.90
26408;DHT22;14583;43.604;1.364;2024-03-08T00:15:41;11.30;99.90
26408;DHT22;14583;43.604;1.364;2024-03-08T00:18:07;11.30;99.90
26408;DHT22;14583;43.604;1.364;2024-03-08T00:20:33;11.30;99.90
26408;DHT22;14583;43.604;1.364;2024-03-08T00:22:58;11.30;99.90
26408;DHT22;14583;43.604;1.364;2024-03-08T00:25:24;11.30;99.90
26408;DHT22;14583;43.604;1.364;2024-03-08T00:27:50;11.30;99.90
26408;DHT22;14583;43.604;1.364;2024-03-08T00:30:16;11.30;99.90
26408;DHT22;14583;43.604;1.364;2024-03-08T00:32:42;11.30;99.90
26408;DHT22;14583;43.604;1.364;2024-03-08T00:35:08;11.30;99.90
26408;DHT22;14583;43.604;1.364;2024-03-08T00:37:34;11.30;99.90
26408;DHT22;14583;43.604;1.364;2024-03-08T00:40:03;11.30;99.90
26408;DHT22;14583;43.604;1.364;2024-03-08T00:42:28;11.30;99.90
26408;DHT22;14583;43.604;1.364;2024-03-08T00:44:54;11.30;99.90
26408;DHT22;14583;43.604;1.364;2024-03-08T00:47:20;11.30;99.90
26408;DHT22;14583;43.604;1.364;2024-03-08T00:49:45;11.20;99.90
26408;DHT22;14583;43.604;1.364;2024-03-08T00:52:11;11.20;99.90
26408;DHT22;14583;43.604;1.364;2024-03-08T00:54:37;11.20;99.90
26408;DHT22;14583;43.604;1.364;2024-03-08T00:57:06;11.20;99.90
26408;DHT22;14583;43.604;1.364;2024-03-08T00:59:32;11.20;99.90
26408;DHT22;14583;43.604;1.364;2024-03-08T01:02:01;11.30;99.90
26408;DHT22;14583;43.604;1.364;2024-03-08T01:04:27;11.30;99.90
26408;DHT22;14583;43.604;1.364;2024-03-08T01:06:56;11.30;99.90
26408;DHT22;14583;43.604;1.364;2024-03-08T01:09:23;11.30;99.90
26408;DHT22;14583;43.604;1.364;2024-03-08T01:11:49;11.30;99.90
26408;DHT22;14583;43.604;1.364;2024-03-08T01:14:16;11.30;99.90
26408;DHT22;14583;43.604;1.364;2024-03-08T01:16:41;11.30;99.90
26408;DHT22;14583;43.604;1.364;2024-03-08T01:19:07;11.40;99.90
26408;DHT22;14583;43.604;1.364;2024-03-08T01:21:33;11.30;99.90
26408;DHT22;14583;43.604;1.364;2024-03-08T01:23:58;11.30;99.90
26408;DHT22;14583;43.604;1.364;2024-03-08T01:26:24;11.40;99.90
26408;DHT22;14583;43.604;1.364;2024-03-08T01:28:50;11.30;99.90
26408;DHT22;14583;43.604;1.364;2024-03-08T01:31:15;11.30;99.90
26408;DHT22;14583;43.604;1.364;2024-03-08T01:33:41;11.30;99.90
26408;DHT22;14583;43.604;1.364;2024-03-08T01:36:07;11.30;99.90
26408;DHT22;14583;43.604;1.364;2024-03-08T01:38:33;11.30;99.90
26408;DHT22;14583;43.604;1.364;2024-03-08T01:40:59;11.30;99.90
26408;DHT22;14583;43.604;1.364;2024-03-08T01:43:28;11.30;99.90
26408;DHT22;14583;43.604;1.364;2024-03-08T01:45:58;11.40;99.90
26408;DHT22;14583;43.604;1.364;2024-03-08T01:48:25;11.30;99.90
26408;DHT22;14583;43.604;1.364;2024-03-08T01:50:52;11.30;99.90
26408;DHT22;14583;43.604;1.364;2024-03-08T01:53:20;11.20;99.90
26408;DHT22;14583;43.604;1.364;2024-03-08T01:55:48;11.30;99.90
26408;DHT22;14583;43.604;1.364;2024-03-08T01:58:14;11.30;99.90
26408;DHT22;14583;43.604;1.364;2024-03-08T02:00:48;11.30;99.90
26408;DHT22;14583;43.604;1.364;2024-03-08T02:03:17;11.30;99.90
26408;DHT22;14583;43.604;1.364;2024-03-08T02:05:43;11.30;99.90
26408;DHT22;14583;43.604;1.364;2024-03-08T02:08:11;11.20;99.90
26408;DHT22;14583;43.604;1.364;2024-03-08T02:10:44;11.20;99.90
26408;DHT22;14583;43.604;1.364;2024-03-08T02:13:11;11.20;99.90
26408;DHT22;14583;43.604;1.364;2024-03-08T02:15:58;11.20;99.90
26408;DHT22;14583;43.604;1.364;2024-03-08T02:18:28;11.20;99.90
26408;DHT22;14583;43.604;1.364;2024-03-08T02:20:59;11.20;99.90
26408;DHT22;14583;43.604;1.364;2024-03-08T02:23:25;11.20;99.90
26408;DHT22;14583;43.604;1.364;2024-03-08T02:25:52;11.20;99.90
26408;DHT22;14583;43.604;1.364;2024-03-08T02:28:19;11.20;99.90
26408;DHT22;14583;43.604;1.364;2024-03-08T02:30:48;11.20;99.90
26408;DHT22;14583;43.604;1.364;2024-03-08T02:33:15;11.20;99.90
26408;DHT22;14583;43.604;1.364;2024-03-08T02:35:45;11.10;99.90
26408;DHT22;14583;43.604;1.364;2024-03-08T02:38:14;11.20;99.90
26408;DHT22;14583;43.604;1.364;2024-03-08T02:40:44;11.10;99.90
26408;DHT22;14583;43.604;1.364;2024-03-08T02:43:11;11.10;99.90
26408;DHT22;14583;43.604;1.364;2024-03-08T02:45:38;11.10;99.90
26408;DHT22;14583;43.604;1.364;2024-03-08T02:48:04;11.10;99.90
26408;DHT22;14583;43.604;1.364;2024-03-08T02:50:32;11.10;99.90
26408;DHT22;14583;43.604;1.364;2024-03-08T02:52:57;11.10;99.90
26408;DHT22;14583;43.604;1.364;2024-03-08T02:55:23;11.10;99.90
26408;DHT22;14583;43.604;1.364;2024-03-08T02:57:51;11.10;99.90
26408;DHT22;14583;43.604;1.364;2024-03-08T03:00:18;11.10;99.90
26408;DHT22;14583;43.604;1.364;2024-03-08T03:02:45;11.10;99.90
26408;DHT22;14583;43.604;1.364;2024-03-08T03:05:11;11.10;99.90
26408;DHT22;14583;43.604;1.364;2024-03-08T03:07:37;11.00;99.90
26408;DHT22;14583;43.604;1.364;2024-03-08T03:10:04;11.00;99.90
26408;DHT22;14583;43.604;1.364;2024-03-08T03:12:31;11.00;99.90
26408;DHT22;14583;43.604;1.364;2024-03-08T03:14:57;11.00;99.90
26408;DHT22;14583;43.604;1.364;2024-03-08T03:17:26;11.00;99.90
26408;DHT22;14583;43.604;1.364;2024-03-08T03:19:52;11.00;99.90
26408;DHT22;14583;43.604;1.364;2024-03-08T03:22:19;11.10;99.90
26408;DHT22;14583;43.604;1.364;2024-03-08T03:24:45;11.10;99.90
26408;DHT22;14583;43.604;1.364;2024-03-08T03:27:17;11.10;99.90
26408;DHT22;14583;43.604;1.364;2024-03-08T03:29:44;11.10;99.90
26408;DHT22;14583;43.604;1.364;2024-03-08T03:32:13;11.10;99.90
26408;DHT22;14583;43.604;1.364;2024-03-08T03:34:39;11.10;99.90
26408;DHT22;14583;43.604;1.364;2024-03-08T03:37:06;11.10;99.90
26408;DHT22;14583;43.604;1.364;2024-03-08T03:39:38;11.10;99.90
26408;DHT22;14583;43.604;1.364;2024-03-08T03:42:18;11.10;99.90
26408;DHT22;14583;43.604;1.364;2024-03-08T03:44:46;11.10;99.90
26408;DHT22;14583;43.604;1.364;2024-03-08T03:47:13;11.10;99.90
26408;DHT22;14583;43.604;1.364;2024-03-08T03:49:40;11.00;99.90
26408;DHT22;14583;43.604;1.364;2024-03-08T03:52:06;11.00;99.90
26408;DHT22;14583;43.604;1.364;2024-03-08T03:54:31;11.00;99.90
26408;DHT22;14583;43.604;1.364;2024-03-08T03:56:58;11.00;99.90
26408;DHT22;14583;43.604;1.364;2024-03-08T03:59:24;11.00;99.90
26408;DHT22;14583;43.604;1.364;2024-03-08T04:01:50;11.00;99.90
26408;DHT22;14583;43.604;1.364;2024-03-08T04:04:16;11.00;99.90
26408;DHT22;14583;43.604;1.364;2024-03-08T04:06:41;11.00;99.90
26408;DHT22;14583;43.604;1.364;2024-03-08T04:09:07;11.00;99.90
26408;DHT22;14583;43.604;1.364;2024-03-08T04:11:33;11.00;99.90
26408;DHT22;14583;43.604;1.364;2024-03-08T04:13:59;11.00;99.90
26408;DHT22;14583;43.604;1.364;2024-03-08T04:16:25;11.00;99.90
26408;DHT22;14583;43.604;1.364;2024-03-08T04:18:51;11.00;99.90
26408;DHT22;14583;43.604;1.364;2024-03-08T04:21:17;11.00;99.90
26408;DHT22;14583;43.604;1.364;2024-03-08T04:23:44;11.00;99.90
26408;DHT22;14583;43.604;1.364;2024-03-08T04:26:11;11.00;99.90
26408;DHT22;14583;43.604;1.364;2024-03-08T04:28:36;11.00;99.90
26408;DHT22;14583;43.604;1.364;2024-03-08T04:31:03;11.00;99.90
26408;DHT22;14583;43.604;1.364;2024-03-08T04:33:29;11.00;99.90
26408;DHT22;14583;43.604;1.364;2024-03-08T04:35:55;11.00;99.90
26408;DHT22;14583;43.604;1.364;2024-03-08T04:38:21;11.10;99.90
26408;DHT22;14583;43.604;1.364;2024-03-08T04:40:47;11.10;99.90
26408;DHT22;14583;43.604;1.364;2024-03-08T04:43:12;11.10;99.90
26408;DHT22;14583;43.604;1.364;2024-03-08T04:45:39;11.10;99.90
26408;DHT22;14583;43.604;1.364;2024-03-08T04:48:07;11.10;99.90
26408;DHT22;14583;43.604;1.364;2024-03-08T04:50:33;11.10;99.90
26408;DHT22;14583;43.604;1.364;2024-03-08T04:52:59;11.00;99.90
26408;DHT22;14583;43.604;1.364;2024-03-08T04:55:25;11.00;99.90
26408;DHT22;14583;43.604;1.364;2024-03-08T04:57:51;11.00;99.90
26408;DHT22;14583;43.604;1.364;2024-03-08T05:00:16;11.10;99.90
26408;DHT22;14583;43.604;1.364;2024-03-08T05:02:42;11.10;99.90
26408;DHT22;14583;43.604;1.364;2024-03-08T05:05:08;11.10;99.90
26408;DHT22;14583;43.604;1.364;2024-03-08T05:07:40;11.10;99.90
26408;DHT22;14583;43.604;1.364;2024-03-08T05:10:07;11.10;99.90
26408;DHT22;14583;43.604;1.364;2024-03-08T05:12:33;11.10;99.90
26408;DHT22;14583;43.604;1.364;2024-03-08T05:14:59;11.10;99.90
26408;DHT22;14583;43.604;1.364;2024-03-08T05:17:25;11.10;99.90
26408;DHT22;14583;43.604;1.364;2024-03-08T05:19:51;11.10;99.90
26408;DHT22;14583;43.604;1.364;2024-03-08T05:22:17;11.10;99.90
26408;DHT22;14583;43.604;1.364;2024-03-08T05:24:44;11.10;99.90
26408;DHT22;14583;43.604;1.364;2024-03-08T05:27:10;11.10;99.90
26408;DHT22;14583;43.604;1.364;2024-03-08T05:29:36;11.10;99.90
26408;DHT22;14583;43.604;1.364;2024-03-08T05:32:03;11.10;99.90
26408;DHT22;14583;43.604;1.364;2024-03-08T05:34:29;11.10;99.90
26408;DHT22;14583;43.604;1.364;2024-03-08T05:36:55;11.20;99.90
26408;DHT22;14583;43.604;1.364;2024-03-08T05:39:20;11.20;99.90
26408;DHT22;14583;43.604;1.364;2024-03-08T05:41:47;11.20;99.90
26408;DHT22;14583;43.604;1.364;2024-03-08T05:44:13;11.10;99.90
26408;DHT22;14583;43.604;1.364;2024-03-08T05:46:39;11.20;99.90
26408;DHT22;14583;43.604;1.364;2024-03-08T05:49:05;11.20;99.90
26408;DHT22;14583;43.604;1.364;2024-03-08T05:51:36;11.20;99.90
26408;DHT22;14583;43.604;1.364;2024-03-08T05:54:09;11.20;99.90
26408;DHT22;14583;43.604;1.364;2024-03-08T05:56:39;11.20;99.90
26408;DHT22;14583;43.604;1.364;2024-03-08T05:59:08;11.20;99.90
26408;DHT22;14583;43.604;1.364;2024-03-08T06:01:34;11.30;99.90
26408;DHT22;14583;43.604;1.364;2024-03-08T06:04:02;11.30;99.90
26408;DHT22;14583;43.604;1.364;2024-03-08T06:06:29;11.30;99.90
26408;DHT22;14583;43.604;1.364;2024-03-08T06:08:55;11.40;99.90
26408;DHT22;14583;43.604;1.364;2024-03-08T06:11:24;11.30;99.90
26408;DHT22;14583;43.604;1.364;2024-03-08T06:13:52;11.40;99.90
26408;DHT22;14583;43.604;1.364;2024-03-08T06:16:25;11.40;99.90
26408;DHT22;14583;43.604;1.364;2024-03-08T06:18:55;11.30;99.90
26408;DHT22;14583;43.604;1.364;2024-03-08T06:21:21;11.40;99.90
26408;DHT22;14583;43.604;1.364;2024-03-08T06:23:48;11.30;99.90
26408;DHT22;14583;43.604;1.364;2024-03-08T06:26:13;11.40;99.90
26408;DHT22;14583;43.604;1.364;2024-03-08T06:28:39;11.40;99.90
26408;DHT22;14583;43.604;1.364;2024-03-08T06:31:05;11.40;99.90
26408;DHT22;14583;43.604;1.364;2024-03-08T06:33:32;11.40;99.90
26408;DHT22;14583;43.604;1.364;2024-03-08T06:35:58;11.50;99.90
26408;DHT22;14583;43.604;1.364;2024-03-08T06:38:27;11.40;99.90
26408;DHT22;14583;43.604;1.364;2024-03-08T06:40:53;11.50;99.90
26408;DHT22;14583;43.604;1.364;2024-03-08T06:43:20;11.40;99.90
26408;DHT22;14583;43.604;1.364;2024-03-08T06:45:45;11.50;99.90
26408;DHT22;14583;43.604;1.364;2024-03-08T06:48:17;11.50;99.90
26408;DHT22;14583;43.604;1.364;2024-03-08T06:50:44;11.40;99.90
26408;DHT22;14583;43.604;1.364;2024-03-08T06:53:11;11.50;99.90
26408;DHT22;14583;43.604;1.364;2024-03-08T06:55:36;11.50;99.90
26408;DHT22;14583;43.604;1.364;2024-03-08T06:58:02;11.40;99.90
26408;DHT22;14583;43.604;1.364;2024-03-08T07:00:28;11.50;99.90
26408;DHT22;14583;43.604;1.364;2024-03-08T07:02:56;11.50;99.90
26408;DHT22;14583;43.604;1.364;2024-03-08T07:05:26;11.50;99.90
26408;DHT22;14583;43.604;1.364;2024-03-08T07:07:52;11.40;99.90
26408;DHT22;14583;43.604;1.364;2024-03-08T07:10:22;11.40;99.90
26408;DHT22;14583;43.604;1.364;2024-03-08T07:12:52;11.50;99.90
26408;DHT22;14583;43.604;1.364;2024-03-08T07:15:19;11.40;99.90
26408;DHT22;14583;43.604;1.364;2024-03-08T07:17:49;11.40;99.90
26408;DHT22;14583;43.604;1.364;2024-03-08T07:20:15;11.40;99.90
26408;DHT22;14583;43.604;1.364;2024-03-08T07:22:47;11.40;99.90
26408;DHT22;14583;43.604;1.364;2024-03-08T07:25:13;11.40;99.90
26408;DHT22;14583;43.604;1.364;2024-03-08T07:27:49;11.30;99.90
26408;DHT22;14583;43.604;1.364;2024-03-08T07:30:15;11.30;99.90
26408;DHT22;14583;43.604;1.364;2024-03-08T07:32:59;11.30;99.90
26408;DHT22;14583;43.604;1.364;2024-03-08T07:35:25;11.20;99.90
26408;DHT22;14583;43.604;1.364;2024-03-08T07:37:51;11.20;99.90
26408;DHT22;14583;43.604;1.364;2024-03-08T07:40:19;11.20;99.90
26408;DHT22;14583;43.604;1.364;2024-03-08T07:42:45;11.20;99.90
26408;DHT22;14583;43.604;1.364;2024-03-08T07:45:11;11.10;99.90
26408;DHT22;14583;43.604;1.364;2024-03-08T07:47:38;11.10;99.90
26408;DHT22;14583;43.604;1.364;2024-03-08T07:50:04;11.10;99.90
26408;DHT22;14583;43.604;1.364;2024-03-08T07:52:30;11.00;99.90
26408;DHT22;14583;43.604;1.364;2024-03-08T07:54:55;11.10;99.90
26408;DHT22;14583;43.604;1.364;2024-03-08T07:57:24;11.10;99.90
26408;DHT22;14583;43.604;1.364;2024-03-08T07:59:52;11.00;99.90
26408;DHT22;14583;43.604;1.364;2024-03-08T08:02:17;11.00;99.90
26408;DHT22;14583;43.604;1.364;2024-03-08T08:04:43;11.00;99.90
26408;DHT22;14583;43.604;1.364;2024-03-08T08:07:10;11.00;99.90
26408;DHT22;14583;43.604;1.364;2024-03-08T08:09:36;11.00;99.90
26408;DHT22;14583;43.604;1.364;2024-03-08T08:12:03;10.90;99.90
26408;DHT22;14583;43.604;1.364;2024-03-08T08:14:30;10.90;99.90
26408;DHT22;14583;43.604;1.364;2024-03-08T08:16:56;10.90;99.90
26408;DHT22;14583;43.604;1.364;2024-03-08T08:19:23;10.90;99.90
26408;DHT22;14583;43.604;1.364;2024-03-08T08:21:48;10.90;99.90
26408;DHT22;14583;43.604;1.364;2024-03-08T08:24:14;10.80;99.90
26408;DHT22;14583;43.604;1.364;2024-03-08T08:26:40;10.80;99.90
26408;DHT22;14583;43.604;1.364;2024-03-08T08:29:07;10.80;99.90
26408;DHT22;14583;43.604;1.364;2024-03-08T08:31:32;10.80;99.90
26408;DHT22;14583;43.604;1.364;2024-03-08T08:34:01;10.80;99.90
26408;DHT22;14583;43.604;1.364;2024-03-08T08:36:28;10.70;99.90
26408;DHT22;14583;43.604;1.364;2024-03-08T08:38:55;10.70;99.90
26408;DHT22;14583;43.604;1.364;2024-03-08T08:41:23;10.70;99.90
26408;DHT22;14583;43.604;1.364;2024-03-08T08:43:48;10.70;99.90
26408;DHT22;14583;43.604;1.364;2024-03-08T08:46:18;10.70;99.90
26408;DHT22;14583;43.604;1.364;2024-03-08T08:48:44;10.70;99.90
26408;DHT22;14583;43.604;1.364;2024-03-08T08:51:13;10.80;99.90
26408;DHT22;14583;43.604;1.364;2024-03-08T08:53:42;10.80;99.90
26408;DHT22;14583;43.604;1.364;2024-03-08T08:56:12;10.90;99.90
26408;DHT22;14583;43.604;1.364;2024-03-08T08:58:42;11.00;99.90
26408;DHT22;14583;43.604;1.364;2024-03-08T09:01:11;11.00;99.90
26408;DHT22;14583;43.604;1.364;2024-03-08T09:03:37;10.80;99.90
26408;DHT22;14583;43.604;1.364;2024-03-08T09:06:06;10.50;99.90
26408;DHT22;14583;43.604;1.364;2024-03-08T09:08:36;10.40;99.90
26408;DHT22;14583;43.604;1.364;2024-03-08T09:11:01;10.40;99.90
26408;DHT22;14583;43.604;1.364;2024-03-08T09:13:27;10.30;99.90
26408;DHT22;14583;43.604;1.364;2024-03-08T09:15:53;10.00;99.90
26408;DHT22;14583;43.604;1.364;2024-03-08T09:18:19;10.00;99.90
26408;DHT22;14583;43.604;1.364;2024-03-08T09:20:45;10.00;99.90
26408;DHT22;14583;43.604;1.364;2024-03-08T09:23:11;10.00;99.90
26408;DHT22;14583;43.604;1.364;2024-03-08T09:25:36;9.90;99.90
26408;DHT22;14583;43.604;1.364;2024-03-08T09:28:03;9.80;99.90
26408;DHT22;14583;43.604;1.364;2024-03-08T09:30:29;9.80;99.90
26408;DHT22;14583;43.604;1.364;2024-03-08T09:32:54;9.70;99.90
26408;DHT22;14583;43.604;1.364;2024-03-08T09:35:20;9.80;99.90
26408;DHT22;14583;43.604;1.364;2024-03-08T09:37:46;9.70;99.90
26408;DHT22;14583;43.604;1.364;2024-03-08T09:40:17;9.60;99.90
26408;DHT22;14583;43.604;1.364;2024-03-08T09:42:46;9.50;99.90
26408;DHT22;14583;43.604;1.364;2024-03-08T09:45:13;9.40;99.90
26408;DHT22;14583;43.604;1.364;2024-03-08T09:47:42;9.50;99.90
26408;DHT22;14583;43.604;1.364;2024-03-08T09:50:08;9.40;99.90
26408;DHT22;14583;43.604;1.364;2024-03-08T09:52:41;9.30;99.90
26408;DHT22;14583;43.604;1.364;2024-03-08T09:55:10;9.20;99.90
26408;DHT22;14583;43.604;1.364;2024-03-08T09:57:37;9.20;99.90
26408;DHT22;14583;43.604;1.364;2024-03-08T10:00:04;9.30;99.90
26408;DHT22;14583;43.604;1.364;2024-03-08T10:02:47;9.40;99.90
26408;DHT22;14583;43.604;1.364;2024-03-08T10:05:14;9.50;99.90
26408;DHT22;14583;43.604;1.364;2024-03-08T10:07:40;9.50;99.90
26408;DHT22;14583;43.604;1.364;2024-03-08T10:10:06;9.60;99.90
26408;DHT22;14583;43.604;1.364;2024-03-08T10:12:36;9.70;99.90
26408;DHT22;14583;43.604;1.364;2024-03-08T10:15:02;9.70;99.90
26408;DHT22;14583;43.604;1.364;2024-03-08T10:17:29;9.80;99.90
26408;DHT22;14583;43.604;1.364;2024-03-08T10:19:57;10.00;99.90
26408;DHT22;14583;43.604;1.364;2024-03-08T10:22:25;10.10;99.90
26408;DHT22;14583;43.604;1.364;2024-03-08T10:24:51;10.30;99.90
26408;DHT22;14583;43.604;1.364;2024-03-08T10:27:17;10.30;99.90
26408;DHT22;14583;43.604;1.364;2024-03-08T10:29:49;10.30;99.90
26408;DHT22;14583;43.604;1.364;2024-03-08T10:32:17;10.30;99.90
26408;DHT22;14583;43.604;1.364;2024-03-08T10:34:42;10.40;99.90
26408;DHT22;14583;43.604;1.364;2024-03-08T10:37:14;10.40;99.90
26408;DHT22;14583;43.604;1.364;2024-03-08T10:39:46;10.40;99.90
26408;DHT22;14583;43.604;1.364;2024-03-08T10:42:16;10.40;99.90
26408;DHT22;14583;43.604;1.364;2024-03-08T10:45:07;10.50;99.90
26408;DHT22;14583;43.604;1.364;2024-03-08T10:47:41;10.50;99.90
26408;DHT22;14583;43.604;1.364;2024-03-08T10:52:36;10.60;99.90
26408;DHT22;14583;43.604;1.364;2024-03-08T10:55:02;10.60;99.90
26408;DHT22;14583;43.604;1.364;2024-03-08T10:57:29;10.70;99.90
26408;DHT22;14583;43.604;1.364;2024-03-08T10:59:55;10.80;99.90
26408;DHT22;14583;43.604;1.364;2024-03-08T11:02:21;10.90;99.90
26408;DHT22;14583;43.604;1.364;2024-03-08T11:04:49;11.10;99.90
26408;DHT22;14583;43.604;1.364;2024-03-08T11:07:16;11.30;99.90
26408;DHT22;14583;43.604;1.364;2024-03-08T11:09:44;11.40;99.90
26408;DHT22;14583;43.604;1.364;2024-03-08T11:12:27;11.40;99.90
26408;DHT22;14583;43.604;1.364;2024-03-08T11:15:02;11.50;99.90
26408;DHT22;14583;43.604;1.364;2024-03-08T11:19:58;11.40;99.90
26408;DHT22;14583;43.604;1.364;2024-03-08T11:22:33;11.30;99.90
26408;DHT22;14583;43.604;1.364;2024-03-08T11:25:02;11.40;99.90
26408;DHT22;14583;43.604;1.364;2024-03-08T11:27:31;11.50;99.90
26408;DHT22;14583;43.604;1.364;2024-03-08T11:30:08;11.60;99.90
26408;DHT22;14583;43.604;1.364;2024-03-08T11:32:37;11.60;99.90
26408;DHT22;14583;43.604;1.364;2024-03-08T11:35:07;11.70;99.90
26408;DHT22;14583;43.604;1.364;2024-03-08T11:37:34;11.70;99.90
26408;DHT22;14583;43.604;1.364;2024-03-08T11:40:01;11.80;99.90
26408;DHT22;14583;43.604;1.364;2024-03-08T11:42:30;11.70;99.90
26408;DHT22;14583;43.604;1.364;2024-03-08T11:44:56;11.80;99.90
26408;DHT22;14583;43.604;1.364;2024-03-08T11:47:22;11.60;99.90
26408;DHT22;14583;43.604;1.364;2024-03-08T11:49:47;11.60;99.90
26408;DHT22;14583;43.604;1.364;2024-03-08T11:52:15;11.70;99.90
26408;DHT22;14583;43.604;1.364;2024-03-08T11:54:43;11.80;99.90
26408;DHT22;14583;43.604;1.364;2024-03-08T11:57:13;11.80;99.90
26408;DHT22;14583;43.604;1.364;2024-03-08T11:59:38;11.90;99.90
26408;DHT22;14583;43.604;1.364;2024-03-08T12:02:05;12.00;99.90
26408;DHT22;14583;43.604;1.364;2024-03-08T12:04:32;12.10;99.90
26408;DHT22;14583;43.604;1.364;2024-03-08T12:07:01;12.10;99.90
26408;DHT22;14583;43.604;1.364;2024-03-08T12:09:35;12.20;99.90
26408;DHT22;14583;43.604;1.364;2024-03-08T12:12:02;12.20;99.90
26408;DHT22;14583;43.604;1.364;2024-03-08T12:14:30;12.10;99.90
26408;DHT22;14583;43.604;1.364;2024-03-08T12:16:57;12.10;99.90
26408;DHT22;14583;43.604;1.364;2024-03-08T12:19:23;12.30;99.90
26408;DHT22;14583;43.604;1.364;2024-03-08T12:21:49;12.40;99.90
26408;DHT22;14583;43.604;1.364;2024-03-08T12:24:16;12.50;99.90
26408;DHT22;14583;43.604;1.364;2024-03-08T12:26:45;12.50;99.90
26408;DHT22;14583;43.604;1.364;2024-03-08T12:31:52;12.50;99.90
26408;DHT22;14583;43.604;1.364;2024-03-08T12:34:19;12.60;99.90
26408;DHT22;14583;43.604;1.364;2024-03-08T12:36:49;12.80;99.90
26408;DHT22;14583;43.604;1.364;2024-03-08T12:39:18;12.90;99.90
26408;DHT22;14583;43.604;1.364;2024-03-08T12:41:56;12.90;99.90
26408;DHT22;14583;43.604;1.364;2024-03-08T12:44:27;12.70;99.90
26408;DHT22;14583;43.604;1.364;2024-03-08T12:46:54;12.70;99.90
26408;DHT22;14583;43.604;1.364;2024-03-08T12:49:20;12.70;99.90
26408;DHT22;14583;43.604;1.364;2024-03-08T12:51:49;12.70;99.90
26408;DHT22;14583;43.604;1.364;2024-03-08T12:54:14;12.80;99.90
26408;DHT22;14583;43.604;1.364;2024-03-08T12:56:40;12.70;99.90
26408;DHT22;14583;43.604;1.364;2024-03-08T12:59:07;12.70;99.90
26408;DHT22;14583;43.604;1.364;2024-03-08T13:01:34;12.80;99.90
26408;DHT22;14583;43.604;1.364;2024-03-08T13:04:03;12.80;99.90
26408;DHT22;14583;43.604;1.364;2024-03-08T13:06:30;13.00;99.90
26408;DHT22;14583;43.604;1.364;2024-03-08T13:08:57;13.10;99.90
26408;DHT22;14583;43.604;1.364;2024-03-08T13:11:24;13.10;99.90
26408;DHT22;14583;43.604;1.364;2024-03-08T13:13:50;13.10;99.90
26408;DHT22;14583;43.604;1.364;2024-03-08T13:16:16;13.30;99.90
26408;DHT22;14583;43.604;1.364;2024-03-08T13:18:46;13.40;99.90
26408;DHT22;14583;43.604;1.364;2024-03-08T13:21:14;13.30;99.90
26408;DHT22;14583;43.604;1.364;2024-03-08T13:23:41;13.50;99.90
26408;DHT22;14583;43.604;1.364;2024-03-08T13:26:12;13.30;99.90
26408;DHT22;14583;43.604;1.364;2024-03-08T13:28:45;13.40;99.90
26408;DHT22;14583;43.604;1.364;2024-03-08T13:31:11;13.60;99.90
26408;DHT22;14583;43.604;1.364;2024-03-08T13:33:37;13.60;99.90
26408;DHT22;14583;43.604;1.364;2024-03-08T13:36:05;13.50;99.90
26408;DHT22;14583;43.604;1.364;2024-03-08T13:38:32;13.60;99.90
26408;DHT22;14583;43.604;1.364;2024-03-08T13:41:01;13.60;99.90
26408;DHT22;14583;43.604;1.364;2024-03-08T13:43:28;13.70;99.90
26408;DHT22;14583;43.604;1.364;2024-03-08T13:45:54;13.70;99.90
26408;DHT22;14583;43.604;1.364;2024-03-08T13:48:20;13.70;99.90
26408;DHT22;14583;43.604;1.364;2024-03-08T13:50:48;13.60;99.90
26408;DHT22;14583;43.604;1.364;2024-03-08T13:53:14;13.50;99.90
26408;DHT22;14583;43.604;1.364;2024-03-08T13:55:40;13.60;99.90
26408;DHT22;14583;43.604;1.364;2024-03-08T13:58:06;13.70;99.90
26408;DHT22;14583;43.604;1.364;2024-03-08T14:00:35;13.50;99.90
26408;DHT22;14583;43.604;1.364;2024-03-08T14:03:01;13.50;99.90
26408;DHT22;14583;43.604;1.364;2024-03-08T14:05:40;13.50;99.90
26408;DHT22;14583;43.604;1.364;2024-03-08T14:08:11;13.40;99.90
26408;DHT22;14583;43.604;1.364;2024-03-08T14:10:37;13.10;99.90
26408;DHT22;14583;43.604;1.364;2024-03-08T14:13:04;13.10;99.90
26408;DHT22;14583;43.604;1.364;2024-03-08T14:15:34;13.10;99.90
26408;DHT22;14583;43.604;1.364;2024-03-08T14:18:01;13.00;99.90
26408;DHT22;14583;43.604;1.364;2024-03-08T14:20:27;13.00;99.90
26408;DHT22;14583;43.604;1.364;2024-03-08T14:22:55;13.00;99.90
26408;DHT22;14583;43.604;1.364;2024-03-08T14:25:21;13.10;99.90
26408;DHT22;14583;43.604;1.364;2024-03-08T14:27:52;13.10;99.90
26408;DHT22;14583;43.604;1.364;2024-03-08T14:30:27;13.10;99.90
26408;DHT22;14583;43.604;1.364;2024-03-08T14:33:06;13.20;99.90
26408;DHT22;14583;43.604;1.364;2024-03-08T14:35:40;13.30;99.90
26408;DHT22;14583;43.604;1.364;2024-03-08T14:38:06;13.40;99.90
26408;DHT22;14583;43.604;1.364;2024-03-08T14:40:36;13.80;99.90
26408;DHT22;14583;43.604;1.364;2024-03-08T14:43:02;14.20;99.90
26408;DHT22;14583;43.604;1.364;2024-03-08T14:45:29;14.90;99.90
26408;DHT22;14583;43.604;1.364;2024-03-08T14:47:56;15.50;99.90
26408;DHT22;14583;43.604;1.364;2024-03-08T14:50:24;16.00;99.90
26408;DHT22;14583;43.604;1.364;2024-03-08T14:52:51;16.30;99.90
26408;DHT22;14583;43.604;1.364;2024-03-08T14:55:21;16.40;99.90
26408;DHT22;14583;43.604;1.364;2024-03-08T14:57:51;16.60;99.90
26408;DHT22;14583;43.604;1.364;2024-03-08T15:00:18;16.80;99.90
26408;DHT22;14583;43.604;1.364;2024-03-08T15:02:55;17.40;99.90
26408;DHT22;14583;43.604;1.364;2024-03-08T15:05:22;18.10;99.90
26408;DHT22;14583;43.604;1.364;2024-03-08T15:07:52;18.00;99.90
26408;DHT22;14583;43.604;1.364;2024-03-08T15:10:17;17.60;99.90
26408;DHT22;14583;43.604;1.364;2024-03-08T15:12:46;16.80;99.90
26408;DHT22;14583;43.604;1.364;2024-03-08T15:15:14;17.00;99.90
26408;DHT22;14583;43.604;1.364;2024-03-08T15:17:44;17.60;99.90
26408;DHT22;14583;43.604;1.364;2024-03-08T15:20:13;18.60;99.90
26408;DHT22;14583;43.604;1.364;2024-03-08T15:22:53;18.10;99.90
26408;DHT22;14583;43.604;1.364;2024-03-08T15:25:21;18.80;99.90
26408;DHT22;14583;43.604;1.364;2024-03-08T15:27:49;19.80;99.90
26408;DHT22;14583;43.604;1.364;2024-03-08T15:30:15;21.10;99.90
26408;DHT22;14583;43.604;1.364;2024-03-08T15:32:45;22.50;99.90
26408;DHT22;14583;43.604;1.364;2024-03-08T15:35:13;29.00;99.90
26408;DHT22;14583;43.604;1.364;2024-03-08T15:37:40;32.50;92.60
26408;DHT22;14583;43.604;1.364;2024-03-08T15:40:12;34.60;81.80
26408;DHT22;14583;43.604;1.364;2024-03-08T15:43:07;34.40;77.20